sensor_id;sensor_type;location;lat;lon;timestamp;pressure;altitude;pressure_sealevel;temperature;humidity
51053;BME280;37093;37.716;-122.060;2022-10-13T00:00:41;100132.34;;;25.02;34.15
51053;BME280;37093;37.716;-122.060;2022-10-13T00:03:10;100131.90;;;24.97;33.91
51053;BME280;37093;37.716;-122.060;2022-10-13T00:05:41;100131.33;;;25.28;33.82
51053;BME280;37093;37.716;-122.060;2022-10-13T00:08:10;100128.74;;;25.13;33.63
51053;BME280;37093;37.716;-122.060;2022-10-13T00:10:40;100129.91;;;25.11;33.98
51053;BME280;37093;37.716;-122.060;2022-10-13T00:13:09;100130.39;;;25.46;34.11
51053;BME280;37093;37.716;-122.060;2022-10-13T00:15:38;100133.32;;;25.29;34.24
51053;BME280;37093;37.716;-122.060;2022-10-13T00:18:07;100135.98;;;24.68;34.61
51053;BME280;37093;37.716;-122.060;2022-10-13T00:20:39;100135.72;;;24.70;34.45
51053;BME280;37093;37.716;-122.060;2022-10-13T00:23:08;100137.41;;;24.56;34.75
51053;BME280;37093;37.716;-122.060;2022-10-13T00:25:41;100140.13;;;24.72;35.03
51053;BME280;37093;37.716;-122.060;2022-10-13T00:28:10;100135.88;;;24.43;35.37
51053;BME280;37093;37.716;-122.060;2022-10-13T00:30:39;100136.66;;;23.96;35.96
51053;BME280;37093;37.716;-122.060;2022-10-13T00:33:08;100134.07;;;23.99;35.88
51053;BME280;37093;37.716;-122.060;2022-10-13T00:35:40;100134.21;;;24.12;35.75
51053;BME280;37093;37.716;-122.060;2022-10-13T00:38:09;100132.48;;;24.01;35.58
51053;BME280;37093;37.716;-122.060;2022-10-13T00:40:44;100135.92;;;24.02;35.44
51053;BME280;37093;37.716;-122.060;2022-10-13T00:43:16;100135.97;;;24.32;35.27
51053;BME280;37093;37.716;-122.060;2022-10-13T00:45:45;100133.20;;;23.93;35.74
51053;BME280;37093;37.716;-122.060;2022-10-13T00:48:13;100131.15;;;24.18;35.70
51053;BME280;37093;37.716;-122.060;2022-10-13T00:50:42;100130.55;;;23.51;36.23
51053;BME280;37093;37.716;-122.060;2022-10-13T00:53:11;100129.59;;;23.85;36.51
51053;BME280;37093;37.716;-122.060;2022-10-13T00:55:42;100127.31;;;23.50;36.48
51053;BME280;37093;37.716;-122.060;2022-10-13T00:58:16;100124.46;;;23.10;36.71
51053;BME280;37093;37.716;-122.060;2022-10-13T01:00:47;100129.37;;;23.31;36.43
51053;BME280;37093;37.716;-122.060;2022-10-13T01:03:16;100130.32;;;23.75;36.18
51053;BME280;37093;37.716;-122.060;2022-10-13T01:05:45;100131.82;;;23.73;35.73
51053;BME280;37093;37.716;-122.060;2022-10-13T01:08:14;100137.17;;;23.47;36.24
51053;BME280;37093;37.716;-122.060;2022-10-13T01:10:55;100135.99;;;23.83;36.05
51053;BME280;37093;37.716;-122.060;2022-10-13T01:13:33;100133.53;;;23.37;35.90
51053;BME280;37093;37.716;-122.060;2022-10-13T01:16:07;100140.46;;;23.44;36.11
51053;BME280;37093;37.716;-122.060;2022-10-13T01:18:43;100145.63;;;23.89;35.70
51053;BME280;37093;37.716;-122.060;2022-10-13T01:21:19;100149.38;;;23.66;35.95
51053;BME280;37093;37.716;-122.060;2022-10-13T01:24:39;100149.36;;;23.53;35.83
51053;BME280;37093;37.716;-122.060;2022-10-13T01:27:37;100150.53;;;23.16;35.89
51053;BME280;37093;37.716;-122.060;2022-10-13T01:30:15;100151.95;;;23.55;36.04
51053;BME280;37093;37.716;-122.060;2022-10-13T01:32:57;100153.86;;;23.74;36.16
51053;BME280;37093;37.716;-122.060;2022-10-13T01:35:41;100159.80;;;23.29;35.97
51053;BME280;37093;37.716;-122.060;2022-10-13T01:38:19;100159.90;;;23.41;36.04
51053;BME280;37093;37.716;-122.060;2022-10-13T01:41:01;100165.06;;;23.37;36.30
51053;BME280;37093;37.716;-122.060;2022-10-13T01:43:36;100165.50;;;22.72;36.63
51053;BME280;37093;37.716;-122.060;2022-10-13T01:46:08;100167.45;;;23.07;36.85
51053;BME280;37093;37.716;-122.060;2022-10-13T01:48:40;100168.49;;;23.03;36.87
51053;BME280;37093;37.716;-122.060;2022-10-13T01:51:13;100165.38;;;22.69;37.38
51053;BME280;37093;37.716;-122.060;2022-10-13T01:53:45;100164.45;;;22.83;37.34
51053;BME280;37093;37.716;-122.060;2022-10-13T01:56:14;100168.78;;;22.77;37.39
51053;BME280;37093;37.716;-122.060;2022-10-13T01:58:42;100168.53;;;22.91;37.18
51053;BME280;37093;37.716;-122.060;2022-10-13T02:01:26;100171.04;;;22.76;37.18
51053;BME280;37093;37.716;-122.060;2022-10-13T02:04:07;100174.50;;;22.60;37.09
51053;BME280;37093;37.716;-122.060;2022-10-13T02:06:41;100174.66;;;22.86;36.83
51053;BME280;37093;37.716;-122.060;2022-10-13T02:09:16;100175.55;;;22.80;36.82
51053;BME280;37093;37.716;-122.060;2022-10-13T02:11:54;100178.51;;;22.83;36.92
51053;BME280;37093;37.716;-122.060;2022-10-13T02:14:28;100179.10;;;22.76;36.82
51053;BME280;37093;37.716;-122.060;2022-10-13T02:17:00;100178.71;;;22.83;36.79
51053;BME280;37093;37.716;-122.060;2022-10-13T02:19:32;100181.22;;;22.68;36.94
51053;BME280;37093;37.716;-122.060;2022-10-13T02:22:02;100181.97;;;22.40;37.58
51053;BME280;37093;37.716;-122.060;2022-10-13T02:24:31;100183.95;;;22.60;37.75
51053;BME280;37093;37.716;-122.060;2022-10-13T02:27:00;100183.23;;;22.07;37.90
51053;BME280;37093;37.716;-122.060;2022-10-13T02:29:28;100186.60;;;22.41;37.69
51053;BME280;37093;37.716;-122.060;2022-10-13T02:31:56;100190.79;;;22.21;37.59
51053;BME280;37093;37.716;-122.060;2022-10-13T02:34:25;100194.15;;;22.03;37.45
51053;BME280;37093;37.716;-122.060;2022-10-13T02:36:53;100195.82;;;22.29;37.45
51053;BME280;37093;37.716;-122.060;2022-10-13T02:39:22;100195.36;;;22.29;37.48
51053;BME280;37093;37.716;-122.060;2022-10-13T02:41:50;100197.49;;;22.26;37.45
51053;BME280;37093;37.716;-122.060;2022-10-13T02:44:18;100199.62;;;22.17;37.71
51053;BME280;37093;37.716;-122.060;2022-10-13T02:46:47;100196.23;;;22.05;37.76
51053;BME280;37093;37.716;-122.060;2022-10-13T02:49:14;100196.41;;;22.56;38.23
51053;BME280;37093;37.716;-122.060;2022-10-13T02:51:43;100195.73;;;21.96;38.59
51053;BME280;37093;37.716;-122.060;2022-10-13T02:54:11;100195.56;;;21.72;38.61
51053;BME280;37093;37.716;-122.060;2022-10-13T02:56:40;100198.39;;;22.01;38.94
51053;BME280;37093;37.716;-122.060;2022-10-13T02:59:08;100202.21;;;21.98;38.91
51053;BME280;37093;37.716;-122.060;2022-10-13T03:01:36;100204.20;;;21.76;39.43
51053;BME280;37093;37.716;-122.060;2022-10-13T03:04:05;100204.28;;;21.72;39.45
51053;BME280;37093;37.716;-122.060;2022-10-13T03:06:33;100202.13;;;21.57;39.35
51053;BME280;37093;37.716;-122.060;2022-10-13T03:09:02;100202.61;;;21.90;39.12
51053;BME280;37093;37.716;-122.060;2022-10-13T03:11:30;100202.57;;;21.96;38.85
51053;BME280;37093;37.716;-122.060;2022-10-13T03:14:00;100203.18;;;21.91;38.95
51053;BME280;37093;37.716;-122.060;2022-10-13T03:16:28;100202.88;;;21.68;39.40
51053;BME280;37093;37.716;-122.060;2022-10-13T03:18:56;100202.11;;;21.60;39.64
51053;BME280;37093;37.716;-122.060;2022-10-13T03:21:25;100199.09;;;21.62;39.44
51053;BME280;37093;37.716;-122.060;2022-10-13T03:23:53;100198.78;;;21.50;39.50
51053;BME280;37093;37.716;-122.060;2022-10-13T03:26:22;100200.65;;;21.51;39.34
51053;BME280;37093;37.716;-122.060;2022-10-13T03:28:51;100202.34;;;21.25;39.24
51053;BME280;37093;37.716;-122.060;2022-10-13T03:31:19;100204.63;;;21.51;39.36
51053;BME280;37093;37.716;-122.060;2022-10-13T03:33:48;100204.37;;;21.44;39.34
51053;BME280;37093;37.716;-122.060;2022-10-13T03:36:17;100209.89;;;21.45;39.28
51053;BME280;37093;37.716;-122.060;2022-10-13T03:38:46;100210.08;;;21.72;39.44
51053;BME280;37093;37.716;-122.060;2022-10-13T03:41:16;100210.29;;;21.73;39.37
51053;BME280;37093;37.716;-122.060;2022-10-13T03:43:45;100212.81;;;21.57;39.27
51053;BME280;37093;37.716;-122.060;2022-10-13T03:46:15;100215.97;;;21.43;39.98
51053;BME280;37093;37.716;-122.060;2022-10-13T03:48:44;100221.74;;;21.29;40.29
51053;BME280;37093;37.716;-122.060;2022-10-13T03:51:18;100220.19;;;21.24;40.38
51053;BME280;37093;37.716;-122.060;2022-10-13T03:53:48;100219.92;;;21.31;40.19
51053;BME280;37093;37.716;-122.060;2022-10-13T03:56:21;100219.29;;;21.18;39.98
51053;BME280;37093;37.716;-122.060;2022-10-13T03:58:50;100221.16;;;21.16;39.97
51053;BME280;37093;37.716;-122.060;2022-10-13T04:01:19;100222.03;;;21.35;40.29
51053;BME280;37093;37.716;-122.060;2022-10-13T04:03:48;100224.12;;;20.99;40.26
51053;BME280;37093;37.716;-122.060;2022-10-13T04:06:17;100225.62;;;21.17;39.96
51053;BME280;37093;37.716;-122.060;2022-10-13T04:08:45;100227.67;;;21.21;40.23
51053;BME280;37093;37.716;-122.060;2022-10-13T04:11:15;100227.68;;;21.07;40.63
51053;BME280;37093;37.716;-122.060;2022-10-13T04:13:44;100232.07;;;20.91;40.62
51053;BME280;37093;37.716;-122.060;2022-10-13T04:16:15;100235.71;;;20.72;41.07
51053;BME280;37093;37.716;-122.060;2022-10-13T04:18:44;100237.96;;;20.91;40.92
51053;BME280;37093;37.716;-122.060;2022-10-13T04:21:13;100235.29;;;20.99;40.69
51053;BME280;37093;37.716;-122.060;2022-10-13T04:23:42;100237.52;;;20.96;40.44
51053;BME280;37093;37.716;-122.060;2022-10-13T04:26:15;100234.24;;;21.03;40.49
51053;BME280;37093;37.716;-122.060;2022-10-13T04:28:44;100235.85;;;20.89;40.39
51053;BME280;37093;37.716;-122.060;2022-10-13T04:31:12;100234.73;;;21.01;40.00
51053;BME280;37093;37.716;-122.060;2022-10-13T04:33:41;100235.06;;;21.05;39.72
51053;BME280;37093;37.716;-122.060;2022-10-13T04:36:12;100237.55;;;21.11;39.50
51053;BME280;37093;37.716;-122.060;2022-10-13T04:38:41;100236.14;;;21.17;39.56
51053;BME280;37093;37.716;-122.060;2022-10-13T04:41:10;100236.47;;;21.25;39.28
51053;BME280;37093;37.716;-122.060;2022-10-13T04:43:39;100235.45;;;21.06;39.23
51053;BME280;37093;37.716;-122.060;2022-10-13T04:46:09;100239.67;;;21.26;39.17
51053;BME280;37093;37.716;-122.060;2022-10-13T04:48:40;100240.57;;;21.08;39.82
51053;BME280;37093;37.716;-122.060;2022-10-13T04:51:10;100241.88;;;20.94;39.64
51053;BME280;37093;37.716;-122.060;2022-10-13T04:53:39;100242.68;;;21.07;39.91
51053;BME280;37093;37.716;-122.060;2022-10-13T04:56:11;100244.40;;;21.14;39.68
51053;BME280;37093;37.716;-122.060;2022-10-13T04:58:40;100245.68;;;21.11;39.60
51053;BME280;37093;37.716;-122.060;2022-10-13T05:01:13;100244.40;;;20.91;39.44
51053;BME280;37093;37.716;-122.060;2022-10-13T05:03:42;100245.08;;;20.99;39.35
51053;BME280;37093;37.716;-122.060;2022-10-13T05:06:14;100248.03;;;21.23;39.16
51053;BME280;37093;37.716;-122.060;2022-10-13T05:08:43;100255.20;;;20.96;39.09
51053;BME280;37093;37.716;-122.060;2022-10-13T05:11:11;100257.61;;;20.84;39.25
51053;BME280;37093;37.716;-122.060;2022-10-13T05:13:40;100256.32;;;20.91;39.49
51053;BME280;37093;37.716;-122.060;2022-10-13T05:16:09;100255.63;;;21.03;39.43
51053;BME280;37093;37.716;-122.060;2022-10-13T05:18:39;100260.16;;;20.99;39.29
51053;BME280;37093;37.716;-122.060;2022-10-13T05:21:10;100259.52;;;20.70;39.45
51053;BME280;37093;37.716;-122.060;2022-10-13T05:23:39;100264.30;;;20.69;39.91
51053;BME280;37093;37.716;-122.060;2022-10-13T05:26:09;100261.70;;;20.94;39.69
51053;BME280;37093;37.716;-122.060;2022-10-13T05:28:39;100263.10;;;20.69;39.58
51053;BME280;37093;37.716;-122.060;2022-10-13T05:31:12;100259.31;;;20.45;39.63
51053;BME280;37093;37.716;-122.060;2022-10-13T05:33:41;100261.75;;;20.51;39.52
51053;BME280;37093;37.716;-122.060;2022-10-13T05:36:12;100260.14;;;20.58;39.18
51053;BME280;37093;37.716;-122.060;2022-10-13T05:38:42;100260.52;;;20.58;39.74
51053;BME280;37093;37.716;-122.060;2022-10-13T05:41:12;100262.75;;;20.73;39.78
51053;BME280;37093;37.716;-122.060;2022-10-13T05:43:41;100266.62;;;20.47;39.91
51053;BME280;37093;37.716;-122.060;2022-10-13T05:46:10;100267.07;;;20.44;39.98
51053;BME280;37093;37.716;-122.060;2022-10-13T05:48:38;100270.91;;;20.59;40.09
51053;BME280;37093;37.716;-122.060;2022-10-13T05:51:10;100270.49;;;20.66;40.05
51053;BME280;37093;37.716;-122.060;2022-10-13T05:53:41;100271.11;;;20.58;40.13
51053;BME280;37093;37.716;-122.060;2022-10-13T05:56:16;100270.88;;;20.50;40.10
51053;BME280;37093;37.716;-122.060;2022-10-13T05:58:48;100269.40;;;20.28;40.06
51053;BME280;37093;37.716;-122.060;2022-10-13T06:01:21;100268.51;;;20.37;40.76
51053;BME280;37093;37.716;-122.060;2022-10-13T06:03:52;100264.69;;;20.34;40.54
51053;BME280;37093;37.716;-122.060;2022-10-13T06:06:22;100270.30;;;20.08;40.69
51053;BME280;37093;37.716;-122.060;2022-10-13T06:08:51;100269.46;;;20.41;40.67
51053;BME280;37093;37.716;-122.060;2022-10-13T06:11:19;100267.05;;;20.39;40.39
51053;BME280;37093;37.716;-122.060;2022-10-13T06:13:48;100269.30;;;20.09;40.69
51053;BME280;37093;37.716;-122.060;2022-10-13T06:16:16;100267.69;;;19.89;41.01
51053;BME280;37093;37.716;-122.060;2022-10-13T06:18:46;100267.43;;;20.05;41.00
51053;BME280;37093;37.716;-122.060;2022-10-13T06:21:15;100268.77;;;20.16;40.84
51053;BME280;37093;37.716;-122.060;2022-10-13T06:23:43;100265.61;;;19.75;40.71
51053;BME280;37093;37.716;-122.060;2022-10-13T06:26:11;100267.08;;;19.80;40.70
51053;BME280;37093;37.716;-122.060;2022-10-13T06:28:39;100268.67;;;19.78;40.82
51053;BME280;37093;37.716;-122.060;2022-10-13T06:31:08;100269.90;;;20.27;40.93
51053;BME280;37093;37.716;-122.060;2022-10-13T06:33:37;100265.27;;;19.48;41.62
51053;BME280;37093;37.716;-122.060;2022-10-13T06:36:05;100266.68;;;19.58;41.42
51053;BME280;37093;37.716;-122.060;2022-10-13T06:38:34;100266.30;;;19.53;41.28
51053;BME280;37093;37.716;-122.060;2022-10-13T06:41:03;100264.77;;;19.68;41.61
51053;BME280;37093;37.716;-122.060;2022-10-13T06:43:32;100269.26;;;19.63;41.32
51053;BME280;37093;37.716;-122.060;2022-10-13T06:46:01;100269.93;;;19.59;41.35
51053;BME280;37093;37.716;-122.060;2022-10-13T06:48:29;100266.59;;;20.08;41.33
51053;BME280;37093;37.716;-122.060;2022-10-13T06:51:01;100264.09;;;19.60;41.41
51053;BME280;37093;37.716;-122.060;2022-10-13T06:53:29;100265.80;;;19.74;40.97
51053;BME280;37093;37.716;-122.060;2022-10-13T06:55:58;100266.36;;;20.07;41.14
51053;BME280;37093;37.716;-122.060;2022-10-13T06:58:27;100266.35;;;19.62;41.09
51053;BME280;37093;37.716;-122.060;2022-10-13T07:01:13;100265.79;;;18.61;40.85
51053;BME280;37093;37.716;-122.060;2022-10-13T07:03:43;100262.52;;;18.91;39.28
51053;BME280;37093;37.716;-122.060;2022-10-13T07:06:11;100255.89;;;20.72;37.81
51053;BME280;37093;37.716;-122.060;2022-10-13T07:08:39;100259.48;;;20.93;37.95
51053;BME280;37093;37.716;-122.060;2022-10-13T07:11:08;100259.43;;;20.65;38.50
51053;BME280;37093;37.716;-122.060;2022-10-13T07:13:37;100255.81;;;20.64;38.95
51053;BME280;37093;37.716;-122.060;2022-10-13T07:16:07;100254.80;;;20.43;39.34
51053;BME280;37093;37.716;-122.060;2022-10-13T07:18:36;100249.79;;;20.13;39.69
51053;BME280;37093;37.716;-122.060;2022-10-13T07:21:06;100250.20;;;19.89;40.40
51053;BME280;37093;37.716;-122.060;2022-10-13T07:23:34;100248.64;;;19.86;40.79
51053;BME280;37093;37.716;-122.060;2022-10-13T07:26:07;100252.51;;;19.36;40.96
51053;BME280;37093;37.716;-122.060;2022-10-13T07:28:35;100251.61;;;19.53;41.14
51053;BME280;37093;37.716;-122.060;2022-10-13T07:31:08;100249.02;;;19.68;40.83
51053;BME280;37093;37.716;-122.060;2022-10-13T07:33:36;100249.66;;;19.61;40.76
51053;BME280;37093;37.716;-122.060;2022-10-13T07:36:05;100248.76;;;19.27;41.00
51053;BME280;37093;37.716;-122.060;2022-10-13T07:38:34;100255.48;;;19.48;40.73
51053;BME280;37093;37.716;-122.060;2022-10-13T07:41:02;100251.18;;;19.71;40.57
51053;BME280;37093;37.716;-122.060;2022-10-13T07:43:31;100250.49;;;19.50;40.58
51053;BME280;37093;37.716;-122.060;2022-10-13T07:46:00;100252.09;;;19.57;40.34
51053;BME280;37093;37.716;-122.060;2022-10-13T07:48:28;100250.08;;;19.65;40.37
51053;BME280;37093;37.716;-122.060;2022-10-13T07:50:57;100251.40;;;19.37;40.75
51053;BME280;37093;37.716;-122.060;2022-10-13T07:53:25;100251.55;;;19.65;41.12
51053;BME280;37093;37.716;-122.060;2022-10-13T07:55:53;100253.11;;;19.30;41.60
51053;BME280;37093;37.716;-122.060;2022-10-13T07:58:22;100258.61;;;19.07;42.02
51053;BME280;37093;37.716;-122.060;2022-10-13T08:00:55;100258.51;;;19.35;42.18
51053;BME280;37093;37.716;-122.060;2022-10-13T08:03:24;100258.84;;;18.82;42.31
51053;BME280;37093;37.716;-122.060;2022-10-13T08:05:53;100257.23;;;18.92;42.10
51053;BME280;37093;37.716;-122.060;2022-10-13T08:08:21;100259.87;;;18.89;41.92
51053;BME280;37093;37.716;-122.060;2022-10-13T08:10:49;100258.42;;;18.78;42.23
51053;BME280;37093;37.716;-122.060;2022-10-13T08:13:17;100256.04;;;19.17;42.29
51053;BME280;37093;37.716;-122.060;2022-10-13T08:15:46;100254.69;;;19.00;41.93
51053;BME280;37093;37.716;-122.060;2022-10-13T08:18:16;100256.01;;;18.71;42.38
51053;BME280;37093;37.716;-122.060;2022-10-13T08:20:45;100256.55;;;18.88;42.81
51053;BME280;37093;37.716;-122.060;2022-10-13T08:23:13;100258.52;;;18.55;42.99
51053;BME280;37093;37.716;-122.060;2022-10-13T08:25:42;100257.94;;;18.56;43.44
51053;BME280;37093;37.716;-122.060;2022-10-13T08:28:16;100254.90;;;18.41;43.77
51053;BME280;37093;37.716;-122.060;2022-10-13T08:30:46;100255.07;;;18.52;43.65
51053;BME280;37093;37.716;-122.060;2022-10-13T08:33:15;100256.93;;;18.43;43.77
51053;BME280;37093;37.716;-122.060;2022-10-13T08:35:44;100254.47;;;18.12;45.13
51053;BME280;37093;37.716;-122.060;2022-10-13T08:38:12;100249.71;;;17.94;45.20
51053;BME280;37093;37.716;-122.060;2022-10-13T08:40:46;100246.65;;;17.88;44.84
51053;BME280;37093;37.716;-122.060;2022-10-13T08:43:16;100245.47;;;18.03;44.90
51053;BME280;37093;37.716;-122.060;2022-10-13T08:45:46;100249.79;;;18.33;44.43
51053;BME280;37093;37.716;-122.060;2022-10-13T08:48:18;100245.13;;;18.46;44.54
51053;BME280;37093;37.716;-122.060;2022-10-13T08:50:51;100245.98;;;17.80;44.55
51053;BME280;37093;37.716;-122.060;2022-10-13T08:53:27;100245.60;;;18.30;44.37
51053;BME280;37093;37.716;-122.060;2022-10-13T08:55:59;100242.29;;;18.72;43.94
51053;BME280;37093;37.716;-122.060;2022-10-13T08:58:31;100239.08;;;18.62;43.90
51053;BME280;37093;37.716;-122.060;2022-10-13T09:01:10;100238.38;;;18.81;44.29
51053;BME280;37093;37.716;-122.060;2022-10-13T09:03:46;100238.88;;;18.63;43.52
51053;BME280;37093;37.716;-122.060;2022-10-13T09:06:18;100244.24;;;18.52;43.29
51053;BME280;37093;37.716;-122.060;2022-10-13T09:08:49;100246.05;;;18.53;43.88
51053;BME280;37093;37.716;-122.060;2022-10-13T09:11:20;100250.23;;;18.84;43.26
51053;BME280;37093;37.716;-122.060;2022-10-13T09:13:52;100250.79;;;18.71;42.95
51053;BME280;37093;37.716;-122.060;2022-10-13T09:16:27;100250.66;;;18.70;43.86
51053;BME280;37093;37.716;-122.060;2022-10-13T09:19:13;100253.85;;;18.87;41.90
51053;BME280;37093;37.716;-122.060;2022-10-13T09:21:42;100249.68;;;18.86;42.74
51053;BME280;37093;37.716;-122.060;2022-10-13T09:24:15;100245.84;;;18.87;42.53
51053;BME280;37093;37.716;-122.060;2022-10-13T09:26:45;100242.49;;;18.92;41.70
51053;BME280;37093;37.716;-122.060;2022-10-13T09:29:17;100240.10;;;18.88;41.89
51053;BME280;37093;37.716;-122.060;2022-10-13T09:31:46;100238.03;;;18.89;42.26
51053;BME280;37093;37.716;-122.060;2022-10-13T09:34:23;100237.08;;;18.81;42.00
51053;BME280;37093;37.716;-122.060;2022-10-13T09:36:56;100241.44;;;18.67;42.97
51053;BME280;37093;37.716;-122.060;2022-10-13T09:39:26;100234.67;;;19.05;41.97
51053;BME280;37093;37.716;-122.060;2022-10-13T09:42:17;100235.29;;;18.79;42.39
51053;BME280;37093;37.716;-122.060;2022-10-13T09:44:48;100235.42;;;18.96;42.48
51053;BME280;37093;37.716;-122.060;2022-10-13T09:47:23;100235.21;;;19.05;42.01
51053;BME280;37093;37.716;-122.060;2022-10-13T09:50:13;100236.05;;;18.79;42.20
51053;BME280;37093;37.716;-122.060;2022-10-13T09:52:43;100235.33;;;18.86;42.02
51053;BME280;37093;37.716;-122.060;2022-10-13T09:55:28;100235.95;;;18.85;42.05
51053;BME280;37093;37.716;-122.060;2022-10-13T09:58:01;100235.07;;;18.55;42.33
51053;BME280;37093;37.716;-122.060;2022-10-13T10:00:32;100235.83;;;19.02;42.33
51053;BME280;37093;37.716;-122.060;2022-10-13T10:03:05;100233.35;;;18.67;42.42
51053;BME280;37093;37.716;-122.060;2022-10-13T10:05:43;100230.22;;;18.58;42.60
51053;BME280;37093;37.716;-122.060;2022-10-13T10:08:20;100229.49;;;18.80;42.16
51053;BME280;37093;37.716;-122.060;2022-10-13T10:10:51;100227.73;;;18.80;42.03
51053;BME280;37093;37.716;-122.060;2022-10-13T10:13:23;100225.57;;;19.00;41.92
51053;BME280;37093;37.716;-122.060;2022-10-13T10:15:55;100224.82;;;18.64;42.16
51053;BME280;37093;37.716;-122.060;2022-10-13T10:18:32;100224.63;;;18.80;42.01
51053;BME280;37093;37.716;-122.060;2022-10-13T10:21:09;100222.99;;;18.83;42.01
51053;BME280;37093;37.716;-122.060;2022-10-13T10:23:44;100223.13;;;18.79;41.86
51053;BME280;37093;37.716;-122.060;2022-10-13T10:26:17;100223.09;;;18.60;42.42
51053;BME280;37093;37.716;-122.060;2022-10-13T10:29:12;100220.78;;;18.56;42.26
51053;BME280;37093;37.716;-122.060;2022-10-13T10:31:56;100217.27;;;18.30;43.11
51053;BME280;37093;37.716;-122.060;2022-10-13T10:34:39;100212.67;;;18.33;43.01
51053;BME280;37093;37.716;-122.060;2022-10-13T10:37:17;100206.84;;;18.43;42.81
51053;BME280;37093;37.716;-122.060;2022-10-13T10:39:48;100201.10;;;18.68;43.08
51053;BME280;37093;37.716;-122.060;2022-10-13T10:42:37;100196.74;;;18.63;42.46
51053;BME280;37093;37.716;-122.060;2022-10-13T10:45:16;100194.27;;;18.98;42.23
51053;BME280;37093;37.716;-122.060;2022-10-13T10:47:47;100195.56;;;18.93;42.17
51053;BME280;37093;37.716;-122.060;2022-10-13T10:50:18;100199.73;;;19.03;42.20
51053;BME280;37093;37.716;-122.060;2022-10-13T10:52:52;100202.76;;;19.21;41.83
51053;BME280;37093;37.716;-122.060;2022-10-13T10:55:29;100202.83;;;19.11;41.75
51053;BME280;37093;37.716;-122.060;2022-10-13T10:58:07;100203.89;;;19.23;41.72
51053;BME280;37093;37.716;-122.060;2022-10-13T11:00:43;100195.63;;;19.14;42.04
51053;BME280;37093;37.716;-122.060;2022-10-13T11:03:25;100193.84;;;19.04;42.21
51053;BME280;37093;37.716;-122.060;2022-10-13T11:06:00;100194.63;;;18.77;42.77
51053;BME280;37093;37.716;-122.060;2022-10-13T11:08:38;100190.73;;;18.69;43.60
51053;BME280;37093;37.716;-122.060;2022-10-13T11:11:40;100188.73;;;18.78;43.61
51053;BME280;37093;37.716;-122.060;2022-10-13T11:14:26;100185.54;;;18.62;44.22
51053;BME280;37093;37.716;-122.060;2022-10-13T11:17:17;100184.14;;;18.26;44.08
51053;BME280;37093;37.716;-122.060;2022-10-13T11:19:47;100180.46;;;18.85;43.20
51053;BME280;37093;37.716;-122.060;2022-10-13T11:22:18;100179.43;;;18.71;43.16
51053;BME280;37093;37.716;-122.060;2022-10-13T11:24:51;100180.53;;;18.72;42.76
51053;BME280;37093;37.716;-122.060;2022-10-13T11:27:36;100185.08;;;19.12;42.63
51053;BME280;37093;37.716;-122.060;2022-10-13T11:30:37;100186.24;;;19.26;42.13
51053;BME280;37093;37.716;-122.060;2022-10-13T11:33:32;100188.33;;;18.95;41.77
51053;BME280;37093;37.716;-122.060;2022-10-13T11:36:32;100192.26;;;19.27;41.80
51053;BME280;37093;37.716;-122.060;2022-10-13T11:39:14;100190.62;;;19.15;41.53
51053;BME280;37093;37.716;-122.060;2022-10-13T11:41:51;100184.53;;;19.26;41.30
51053;BME280;37093;37.716;-122.060;2022-10-13T11:44:29;100186.20;;;19.52;41.37
51053;BME280;37093;37.716;-122.060;2022-10-13T11:47:07;100184.46;;;19.34;41.44
51053;BME280;37093;37.716;-122.060;2022-10-13T11:49:52;100186.65;;;19.35;41.53
51053;BME280;37093;37.716;-122.060;2022-10-13T11:52:46;100187.13;;;19.22;41.69
51053;BME280;37093;37.716;-122.060;2022-10-13T11:55:27;100182.78;;;19.36;41.55
51053;BME280;37093;37.716;-122.060;2022-10-13T11:58:08;100185.13;;;19.29;42.09
51053;BME280;37093;37.716;-122.060;2022-10-13T12:00:37;100185.41;;;19.09;42.36
51053;BME280;37093;37.716;-122.060;2022-10-13T12:03:21;100182.10;;;18.83;43.11
51053;BME280;37093;37.716;-122.060;2022-10-13T12:05:50;100183.62;;;18.92;42.83
51053;BME280;37093;37.716;-122.060;2022-10-13T12:08:18;100187.15;;;18.78;43.19
51053;BME280;37093;37.716;-122.060;2022-10-13T12:10:52;100190.09;;;19.11;43.20
51053;BME280;37093;37.716;-122.060;2022-10-13T12:13:22;100193.49;;;18.44;43.63
51053;BME280;37093;37.716;-122.060;2022-10-13T12:15:57;100193.88;;;18.75;43.36
51053;BME280;37093;37.716;-122.060;2022-10-13T12:18:28;100192.17;;;18.73;43.52
51053;BME280;37093;37.716;-122.060;2022-10-13T12:20:59;100190.89;;;18.74;43.28
51053;BME280;37093;37.716;-122.060;2022-10-13T12:23:29;100196.42;;;18.39;43.59
51053;BME280;37093;37.716;-122.060;2022-10-13T12:25:59;100194.47;;;18.45;43.43
51053;BME280;37093;37.716;-122.060;2022-10-13T12:28:30;100198.19;;;18.89;43.17
51053;BME280;37093;37.716;-122.060;2022-10-13T12:31:18;100195.91;;;18.81;42.85
51053;BME280;37093;37.716;-122.060;2022-10-13T12:33:53;100197.74;;;19.03;42.45
51053;BME280;37093;37.716;-122.060;2022-10-13T12:36:24;100195.49;;;19.19;42.19
51053;BME280;37093;37.716;-122.060;2022-10-13T12:38:55;100197.76;;;19.47;42.01
51053;BME280;37093;37.716;-122.060;2022-10-13T12:41:28;100194.45;;;19.01;42.27
51053;BME280;37093;37.716;-122.060;2022-10-13T12:43:57;100193.63;;;19.06;42.05
51053;BME280;37093;37.716;-122.060;2022-10-13T12:46:42;100193.89;;;19.36;42.53